createdAt,value
2023-06-30T15:17:53.704Z,97966.72
2023-06-30T15:20:34.463Z,97966.81
2023-06-30T15:23:09.983Z,97964.16
2023-06-30T15:28:31.197Z,97970.59
2023-06-30T15:31:11.708Z,97970.22
2023-06-30T15:33:49.662Z,97973.25
2023-06-30T15:36:22.456Z,97975.06
2023-06-30T15:39:13.879Z,97967.41
2023-06-30T15:41:54.039Z,97970.63
2023-06-30T15:44:31.926Z,97965.19
2023-06-30T15:47:02.695Z,97971.59
2023-06-30T15:49:32.703Z,97976.44
2023-06-30T15:52:18.400Z,97973.34
2023-06-30T15:55:08.269Z,97962.47
2023-06-30T15:57:38.637Z,97970.50
2023-06-30T16:00:21.194Z,97968.28
2023-06-30T16:03:07.508Z,97971.81
2023-06-30T16:05:42.628Z,97964.69
2023-06-30T16:08:18.072Z,97968.63
2023-06-30T16:10:53.508Z,97968.88
2023-06-30T16:13:25.981Z,97976.19
2023-06-30T16:15:59.054Z,97964.91
2023-06-30T16:18:30.814Z,97967.72
2023-06-30T16:21:03.859Z,97971.22
2023-06-30T16:23:31.088Z,97962.38
2023-06-30T16:26:08.864Z,97965.06
2023-06-30T16:28:47.425Z,97973.44
2023-06-30T16:31:28.706Z,97970.38
2023-06-30T16:34:08.482Z,97957.47
2023-06-30T16:36:43.120Z,97969.63
2023-06-30T16:39:12.987Z,97967.06
2023-06-30T16:42:00.095Z,97960.31
2023-06-30T16:44:31.143Z,97961.44
2023-06-30T16:47:09.116Z,97955.69
2023-06-30T16:49:41.217Z,97945.47
2023-06-30T16:52:11.217Z,97948.72
2023-06-30T16:54:45.876Z,97951.63
2023-06-30T16:57:21.288Z,97957.06
2023-06-30T16:59:56.179Z,97951.34
2023-06-30T17:02:46.305Z,97952.22
2023-06-30T17:05:23.661Z,97955.34
2023-06-30T17:08:03.233Z,97955.06
2023-06-30T17:10:46.731Z,97960.06
2023-06-30T17:13:14.146Z,97954.53
2023-06-30T17:15:44.408Z,97946.81
2023-06-30T17:18:19.485Z,97952.78
2023-06-30T17:20:57.276Z,97959.97
2023-06-30T17:23:31.494Z,97955.56
2023-06-30T17:26:06.163Z,97956.13
2023-06-30T17:28:39.825Z,97956.75
2023-06-30T17:31:09.851Z,97956.53
2023-06-30T17:33:39.117Z,97956.53
2023-06-30T17:36:16.190Z,97953.53
2023-06-30T17:38:48.000Z,97955.66
2023-06-30T17:41:25.594Z,97963.00
2023-06-30T17:44:00.927Z,97960.72
2023-06-30T17:46:35.918Z,97966.16
2023-06-30T17:49:31.566Z,97971.59
2023-06-30T17:52:04.578Z,97973.63
2023-06-30T17:54:40.494Z,97965.75
2023-06-30T17:57:09.762Z,97968.47
2023-06-30T17:59:44.102Z,97980.47
2023-06-30T18:02:22.907Z,97973.47
2023-06-30T18:04:55.378Z,97969.91
2023-06-30T18:07:33.026Z,97974.22
2023-06-30T18:10:05.418Z,97967.94
2023-06-30T18:12:35.133Z,97972.91
2023-06-30T18:15:12.421Z,97969.88
2023-06-30T18:17:44.922Z,97972.91
2023-06-30T18:20:28.351Z,97973.88
2023-06-30T18:23:03.276Z,97985.28
2023-06-30T18:25:43.578Z,97969.06
2023-06-30T18:28:14.423Z,97974.63
2023-06-30T18:30:46.016Z,97980.81
2023-06-30T18:33:12.860Z,97980.34
2023-06-30T18:35:55.050Z,97975.63
2023-06-30T18:38:33.137Z,97984.69
2023-06-30T18:41:05.632Z,97980.50
2023-06-30T18:43:37.573Z,97977.47
2023-06-30T18:46:21.044Z,97982.78
2023-06-30T18:48:56.189Z,97983.16
2023-06-30T18:51:35.885Z,97979.75
2023-06-30T18:54:08.698Z,97976.78
2023-06-30T18:56:45.679Z,97990.03
2023-06-30T18:59:18.434Z,97984.31
2023-06-30T19:01:53.280Z,97977.00
2023-06-30T19:04:25.350Z,97985.84
2023-06-30T19:07:05.208Z,97990.97
2023-06-30T19:09:37.297Z,97992.66
2023-06-30T19:12:11.385Z,97991.53
2023-06-30T19:14:57.380Z,97994.03
2023-06-30T19:17:35.331Z,97999.88
2023-06-30T19:20:11.614Z,97997.22
2023-06-30T19:22:47.443Z,97998.31
2023-06-30T19:25:16.976Z,98002.38
2023-06-30T19:27:52.762Z,97998.97
2023-06-30T19:30:30.935Z,98006.09
2023-06-30T19:33:09.363Z,98002.38
2023-06-30T19:35:38.973Z,98004.28
2023-06-30T19:38:11.675Z,98007.69
2023-06-30T19:40:40.805Z,98004.16
2023-06-30T19:43:15.702Z,98007.50
2023-06-30T19:45:50.740Z,98014.25
2023-06-30T19:48:26.403Z,98007.41
2023-06-30T19:51:01.432Z,98014.78
2023-06-30T19:53:28.667Z,98008.81
2023-06-30T19:56:06.587Z,98014.69
2023-06-30T19:58:38.671Z,98014.91
2023-06-30T20:01:16.371Z,98024.66
2023-06-30T20:03:51.409Z,98018.66
2023-06-30T20:06:26.502Z,98021.75
2023-06-30T20:09:01.347Z,98026.41
2023-06-30T20:11:33.474Z,98019.75
2023-06-30T20:14:11.110Z,98024.38
2023-06-30T20:16:46.299Z,98014.88
2023-06-30T20:19:21.088Z,98013.28
2023-06-30T20:21:56.524Z,98020.63
2023-06-30T20:24:30.371Z,98016.84
2023-06-30T20:27:05.369Z,98020.28
2023-06-30T20:29:39.982Z,98021.41
2023-06-30T20:32:27.482Z,98019.78
2023-06-30T20:34:59.593Z,98022.34
2023-06-30T20:37:32.373Z,98021.00
2023-06-30T20:40:03.804Z,98020.41
2023-06-30T20:42:41.926Z,98014.84
2023-06-30T20:45:16.981Z,98017.50
2023-06-30T20:47:51.917Z,98012.13
2023-06-30T20:50:31.181Z,98013.88
2023-06-30T20:53:06.831Z,98009.47
2023-06-30T20:55:44.602Z,98001.34
2023-06-30T20:58:18.795Z,97999.66
2023-06-30T21:00:53.174Z,97993.63
2023-06-30T21:03:30.138Z,97996.38
2023-06-30T21:06:02.470Z,97999.28
2023-06-30T21:08:48.678Z,97990.75
2023-06-30T21:11:22.365Z,97990.25
2023-06-30T21:13:52.081Z,97991.38
2023-06-30T21:16:30.242Z,97989.22
2023-06-30T21:18:59.548Z,97985.94
2023-06-30T21:21:33.515Z,97984.06
2023-06-30T21:24:04.559Z,97989.38
2023-06-30T21:26:44.716Z,97979.69
2023-06-30T21:29:19.778Z,97991.06
2023-06-30T21:31:57.907Z,97981.59
2023-06-30T21:34:32.549Z,97975.84
2023-06-30T21:37:12.740Z,97972.25
2023-06-30T21:39:55.635Z,97974.63
2023-06-30T21:42:39.936Z,97978.41
2023-06-30T21:45:15.620Z,97973.09
2023-06-30T21:47:42.716Z,97967.09
2023-06-30T21:50:22.871Z,97966.44
2023-06-30T21:53:00.032Z,97954.78
2023-06-30T21:55:36.335Z,97959.41
2023-06-30T21:58:26.815Z,97957.84
2023-06-30T22:01:20.195Z,97952.72
2023-06-30T22:03:58.228Z,97953.84
2023-06-30T22:06:35.750Z,97958.22
2023-06-30T22:09:16.276Z,97960.44
2023-06-30T22:12:08.527Z,97945.88
2023-06-30T22:14:44.329Z,97944.09
2023-06-30T22:17:19.374Z,97941.59
2023-06-30T22:19:58.447Z,97939.03
2023-06-30T22:22:32.921Z,97940.38
2023-06-30T22:25:04.988Z,97945.16
2023-06-30T22:27:43.325Z,97937.97
2023-06-30T22:30:29.063Z,97931.47
2023-06-30T22:33:00.374Z,97927.03
2023-06-30T22:35:35.676Z,97927.03
2023-06-30T22:38:17.370Z,97925.25
2023-06-30T22:40:55.071Z,97929.59
2023-06-30T22:43:35.060Z,97924.66
2023-06-30T22:46:13.524Z,97922.94
2023-06-30T22:48:59.503Z,97922.94
2023-06-30T22:51:33.445Z,97917.28
2023-06-30T22:54:10.512Z,97926.19
2023-06-30T22:56:51.920Z,97918.94
2023-06-30T22:59:22.885Z,97929.44
2023-06-30T23:02:01.378Z,97917.13
2023-06-30T23:04:39.011Z,97924.72
2023-06-30T23:07:11.345Z,97917.56
2023-06-30T23:09:50.257Z,97920.38
2023-06-30T23:12:24.929Z,97915.56
2023-06-30T23:14:56.900Z,97913.44
2023-06-30T23:17:33.565Z,97909.72
2023-06-30T23:20:04.524Z,97913.81
2023-06-30T23:22:47.438Z,97920.94
2023-06-30T23:25:27.130Z,97918.63
2023-06-30T23:28:09.231Z,97920.41
2023-06-30T23:30:49.068Z,97914.56
2023-06-30T23:33:18.591Z,97915.38
2023-06-30T23:35:53.117Z,97911.47
2023-06-30T23:38:29.136Z,97923.94
2023-06-30T23:41:17.107Z,97919.34
2023-06-30T23:43:53.094Z,97916.88
2023-06-30T23:46:30.282Z,97915.06
2023-06-30T23:49:03.200Z,97919.81
2023-06-30T23:51:45.203Z,97923.31
2023-06-30T23:54:17.584Z,97921.78
2023-06-30T23:56:49.967Z,97923.03
2023-06-30T23:59:22.853Z,97913.91
